createdAt,value
2023-02-23T00:01:55.351Z,11.30
2023-02-23T00:04:24.671Z,11.07
2023-02-23T00:06:54.035Z,11.75
2023-02-23T00:09:24.357Z,12.57
2023-02-23T00:11:55.222Z,11.60
2023-02-23T00:14:27.782Z,11.73
2023-02-23T00:16:55.923Z,11.98
2023-02-23T00:19:25.372Z,11.77
2023-02-23T00:21:54.046Z,11.20
2023-02-23T00:24:23.681Z,11.57
2023-02-23T00:26:53.969Z,12.10
2023-02-23T00:29:23.816Z,12.35
2023-02-23T00:31:53.221Z,11.05
2023-02-23T00:34:23.593Z,10.98
2023-02-23T00:36:54.783Z,12.57
2023-02-23T00:39:26.759Z,12.40
2023-02-23T00:41:56.996Z,13.07
2023-02-23T00:44:25.663Z,12.95
2023-02-23T00:46:54.323Z,13.75
2023-02-23T00:49:23.654Z,13.63
2023-02-23T00:51:52.223Z,13.10
2023-02-23T00:54:22.722Z,13.75
2023-02-23T00:56:51.473Z,16.05
2023-02-23T00:59:21.682Z,13.45
2023-02-23T01:01:50.144Z,13.98
2023-02-23T01:04:18.256Z,14.63
2023-02-23T01:06:46.903Z,14.60
2023-02-23T01:09:22.450Z,14.82
2023-02-23T01:11:50.664Z,14.63
2023-02-23T01:14:22.602Z,14.15
2023-02-23T01:16:50.734Z,15.98
2023-02-23T01:19:19.352Z,15.48
2023-02-23T01:21:47.995Z,14.52
2023-02-23T01:24:16.669Z,16.08
2023-02-23T01:26:47.610Z,13.38
2023-02-23T01:29:17.673Z,13.85
2023-02-23T01:31:48.719Z,14.18
2023-02-23T01:34:17.514Z,14.70
2023-02-23T01:36:45.923Z,14.68
2023-02-23T01:39:16.109Z,17.25
2023-02-23T01:41:44.757Z,16.27
2023-02-23T01:44:46.347Z,16.15
2023-02-23T01:47:17.700Z,17.25
2023-02-23T01:49:46.395Z,18.80
2023-02-23T01:52:18.638Z,16.63
2023-02-23T01:54:51.641Z,17.38
2023-02-23T01:57:25.327Z,17.63
2023-02-23T01:59:53.959Z,18.45
2023-02-23T02:02:33.342Z,17.40
2023-02-23T02:05:05.239Z,16.92
2023-02-23T02:07:36.265Z,17.80
2023-02-23T02:10:23.161Z,17.27
2023-02-23T02:12:56.423Z,17.23
2023-02-23T02:15:27.741Z,17.25
2023-02-23T02:18:09.700Z,16.85
2023-02-23T02:21:08.411Z,18.63
2023-02-23T02:24:11.713Z,17.35
2023-02-23T02:26:51.358Z,16.77
2023-02-23T02:29:48.834Z,19.45
2023-02-23T02:32:57.348Z,18.77
2023-02-23T02:36:07.953Z,19.92
2023-02-23T02:38:51.012Z,17.33
2023-02-23T02:41:27.610Z,17.40
2023-02-23T02:44:02.092Z,17.95
2023-02-23T02:46:36.561Z,18.95
2023-02-23T02:49:10.341Z,19.17
2023-02-23T02:51:46.314Z,20.20
2023-02-23T02:54:25.322Z,21.50
2023-02-23T02:56:57.870Z,20.58
2023-02-23T02:59:44.051Z,24.98
2023-02-23T03:02:35.038Z,19.98
2023-02-23T03:05:21.031Z,22.23
2023-02-23T03:08:13.606Z,21.27
2023-02-23T03:11:11.797Z,19.27
2023-02-23T03:14:07.668Z,19.63
2023-02-23T03:17:00.993Z,21.53
2023-02-23T03:19:50.952Z,21.40
2023-02-23T03:22:42.745Z,23.43
2023-02-23T03:25:33.580Z,20.80
2023-02-23T03:28:31.256Z,20.88
2023-02-23T03:31:24.509Z,18.60
2023-02-23T03:34:17.376Z,18.92
2023-02-23T03:37:09.577Z,24.27
2023-02-23T03:39:59.668Z,26.73
2023-02-23T03:42:51.469Z,21.47
2023-02-23T03:45:42.488Z,22.23
2023-02-23T03:48:31.103Z,20.58
2023-02-23T03:51:22.445Z,21.83
2023-02-23T03:54:12.875Z,21.63
2023-02-23T03:57:03.299Z,24.38
2023-02-23T03:59:53.257Z,22.77
2023-02-23T04:02:42.569Z,22.05
2023-02-23T04:05:35.529Z,22.27
2023-02-23T04:08:23.251Z,23.50
2023-02-23T04:11:13.882Z,21.95
2023-02-23T04:13:42.636Z,22.67
2023-02-23T04:16:11.138Z,24.05
2023-02-23T04:18:43.097Z,23.88
2023-02-23T04:21:11.290Z,27.08
2023-02-23T04:23:41.546Z,24.00
2023-02-23T04:26:10.665Z,24.02
2023-02-23T04:28:39.232Z,28.80
2023-02-23T04:31:07.336Z,25.40
2023-02-23T04:33:35.437Z,24.43
2023-02-23T04:36:05.811Z,25.48
2023-02-23T04:38:33.859Z,24.73
2023-02-23T04:41:02.455Z,27.13
2023-02-23T04:43:30.700Z,24.33
2023-02-23T04:45:58.864Z,25.38
2023-02-23T04:48:27.664Z,25.25
2023-02-23T04:50:56.150Z,25.20
2023-02-23T04:53:26.620Z,25.70
2023-02-23T04:55:54.744Z,26.42
2023-02-23T04:58:23.366Z,25.40
2023-02-23T05:00:51.450Z,25.95
2023-02-23T05:03:19.997Z,23.83
2023-02-23T05:05:48.563Z,25.55
2023-02-23T05:08:16.666Z,25.45
2023-02-23T05:10:47.942Z,23.85
2023-02-23T05:13:16.366Z,24.65
2023-02-23T05:15:44.929Z,26.70
2023-02-23T05:18:13.489Z,23.80
2023-02-23T05:20:45.284Z,23.42
2023-02-23T05:23:13.448Z,25.30
2023-02-23T05:25:42.060Z,24.13
2023-02-23T05:28:11.631Z,24.52
2023-02-23T05:30:40.196Z,24.77
2023-02-23T05:33:08.756Z,24.00
2023-02-23T05:35:36.855Z,24.52
2023-02-23T05:38:05.407Z,24.47
2023-02-23T05:40:34.793Z,28.20
2023-02-23T05:43:03.350Z,26.13
2023-02-23T05:45:33.739Z,25.10
2023-02-23T05:48:01.815Z,23.17
2023-02-23T05:50:30.449Z,26.05
2023-02-23T05:52:58.525Z,25.73
2023-02-23T05:55:27.640Z,26.63
2023-02-23T05:57:55.760Z,26.73
2023-02-23T06:00:24.910Z,28.33
2023-02-23T06:02:54.691Z,27.30
2023-02-23T06:05:23.374Z,24.13
2023-02-23T06:07:51.583Z,25.17
2023-02-23T06:10:20.376Z,27.10
2023-02-23T06:12:48.452Z,24.27
2023-02-23T06:15:17.364Z,27.15
2023-02-23T06:17:45.901Z,26.60
2023-02-23T06:20:15.840Z,26.15
2023-02-23T06:22:44.667Z,25.92
2023-02-23T06:25:13.945Z,24.70
2023-02-23T06:27:42.526Z,25.93
2023-02-23T06:30:12.443Z,24.03
2023-02-23T06:32:40.818Z,24.97
2023-02-23T06:35:09.672Z,23.95
2023-02-23T06:37:39.644Z,25.65
2023-02-23T06:40:08.971Z,24.20
2023-02-23T06:42:37.603Z,26.90
2023-02-23T06:45:06.483Z,25.67
2023-02-23T06:47:35.138Z,25.87
2023-02-23T06:50:03.248Z,24.48
2023-02-23T06:52:31.847Z,27.00
2023-02-23T06:55:01.609Z,26.83
2023-02-23T06:57:29.692Z,27.90
2023-02-23T06:59:57.838Z,25.33
2023-02-23T07:02:25.946Z,24.65
2023-02-23T07:04:54.005Z,25.27
2023-02-23T07:07:22.303Z,26.73
2023-02-23T07:09:50.376Z,26.98
2023-02-23T07:12:19.927Z,24.27
2023-02-23T07:14:48.214Z,25.20
2023-02-23T07:17:18.349Z,25.83
2023-02-23T07:19:46.501Z,24.70
2023-02-23T07:22:14.637Z,24.88
2023-02-23T07:24:42.743Z,26.77
2023-02-23T07:27:10.818Z,26.30
2023-02-23T07:29:40.748Z,24.45
2023-02-23T07:32:09.415Z,33.53
2023-02-23T07:34:38.043Z,26.02
2023-02-23T07:37:06.160Z,28.02
2023-02-23T07:39:34.762Z,28.20
2023-02-23T07:42:02.905Z,26.30
2023-02-23T07:44:31.529Z,25.73
2023-02-23T07:47:01.078Z,27.65
2023-02-23T07:49:30.552Z,32.17
2023-02-23T07:51:59.152Z,26.23
2023-02-23T07:54:28.090Z,28.38
2023-02-23T07:56:56.404Z,28.25
2023-02-23T07:59:25.014Z,25.15
2023-02-23T08:01:53.147Z,25.67
2023-02-23T08:04:23.139Z,25.20
2023-02-23T08:06:51.764Z,25.73
2023-02-23T08:09:19.859Z,27.25
2023-02-23T08:11:48.438Z,25.88
2023-02-23T08:14:16.492Z,26.80
2023-02-23T08:16:45.082Z,26.38
2023-02-23T08:19:13.208Z,27.00
2023-02-23T08:21:43.404Z,25.70
2023-02-23T08:24:11.856Z,27.60
2023-02-23T08:26:40.016Z,26.45
2023-02-23T08:29:09.016Z,27.23
2023-02-23T08:31:37.552Z,26.27
2023-02-23T08:34:05.867Z,25.52
2023-02-23T08:36:34.106Z,26.77
2023-02-23T08:39:06.520Z,27.75
2023-02-23T08:41:34.980Z,28.33
2023-02-23T08:44:03.070Z,27.48
2023-02-23T08:46:31.322Z,28.77
2023-02-23T08:48:59.610Z,26.95
2023-02-23T08:51:28.565Z,28.02
2023-02-23T08:53:58.096Z,27.20
2023-02-23T08:56:28.434Z,24.13
2023-02-23T08:58:57.311Z,26.65
2023-02-23T09:01:25.946Z,29.23
2023-02-23T09:03:54.048Z,28.23
2023-02-23T09:06:26.251Z,28.55
2023-02-23T09:08:55.680Z,27.33
2023-02-23T09:11:24.059Z,26.23
2023-02-23T09:13:53.514Z,26.58
2023-02-23T09:16:22.098Z,28.15
2023-02-23T09:18:50.412Z,27.48
2023-02-23T09:21:25.694Z,27.10
2023-02-23T09:23:56.163Z,26.55
2023-02-23T09:26:26.790Z,26.27
2023-02-23T09:28:57.367Z,26.70
2023-02-23T09:31:25.891Z,24.67
2023-02-23T09:33:55.252Z,25.00
2023-02-23T09:36:26.270Z,29.45
2023-02-23T09:38:57.723Z,27.02
2023-02-23T09:41:59.694Z,24.63
2023-02-23T09:44:43.817Z,24.67
2023-02-23T09:47:30.166Z,28.15
2023-02-23T09:50:00.845Z,27.83
2023-02-23T09:52:38.789Z,26.58
2023-02-23T09:55:08.698Z,26.65
2023-02-23T09:57:39.999Z,27.20
2023-02-23T10:00:19.127Z,27.15
2023-02-23T10:03:04.478Z,27.75
2023-02-23T10:05:38.859Z,24.98
2023-02-23T10:08:09.943Z,24.73
2023-02-23T10:10:45.170Z,25.17
2023-02-23T10:13:23.358Z,24.15
2023-02-23T10:15:58.065Z,24.35
2023-02-23T10:18:46.021Z,23.80
2023-02-23T10:21:20.095Z,25.77
2023-02-23T10:23:55.839Z,26.73
2023-02-23T10:26:28.286Z,24.20
2023-02-23T10:28:59.932Z,24.35
2023-02-23T10:31:36.020Z,22.17
2023-02-23T10:34:11.574Z,20.60
2023-02-23T10:36:45.114Z,20.85
2023-02-23T10:39:15.442Z,21.90
2023-02-23T10:41:44.867Z,21.90
2023-02-23T10:44:19.557Z,21.42
2023-02-23T10:46:55.826Z,21.90
2023-02-23T10:49:30.344Z,22.48
2023-02-23T10:52:03.073Z,22.25
2023-02-23T10:54:48.005Z,22.02
2023-02-23T10:57:26.653Z,20.90
2023-02-23T11:00:17.140Z,20.45
2023-02-23T11:02:47.736Z,19.63
2023-02-23T11:05:32.308Z,19.85
2023-02-23T11:08:30.822Z,18.90
2023-02-23T11:11:19.813Z,20.65
2023-02-23T11:13:50.047Z,18.90
2023-02-23T11:16:20.511Z,20.05
2023-02-23T11:18:57.081Z,19.23
2023-02-23T11:21:29.550Z,19.23
2023-02-23T11:24:00.698Z,19.67
2023-02-23T11:26:40.346Z,19.15
2023-02-23T11:29:18.205Z,20.38
2023-02-23T11:31:53.095Z,19.67
2023-02-23T11:34:30.029Z,21.23
2023-02-23T11:37:04.982Z,18.13
2023-02-23T11:39:33.653Z,18.35
2023-02-23T11:42:19.922Z,17.73
2023-02-23T11:45:04.684Z,16.67
2023-02-23T11:47:35.289Z,17.30
2023-02-23T11:50:06.463Z,15.82
2023-02-23T11:52:36.922Z,15.95
2023-02-23T11:55:17.187Z,15.85
2023-02-23T11:57:46.811Z,15.52
2023-02-23T12:00:25.024Z,16.08
2023-02-23T12:02:57.130Z,15.73
2023-02-23T12:05:28.767Z,15.82
2023-02-23T12:08:05.745Z,15.63
2023-02-23T12:10:39.818Z,16.08
2023-02-23T12:13:21.878Z,16.42
2023-02-23T12:15:54.512Z,13.90
2023-02-23T12:18:39.506Z,14.80
2023-02-23T12:21:20.351Z,14.75
2023-02-23T12:23:52.788Z,14.05
2023-02-23T12:26:24.819Z,13.05
2023-02-23T12:29:00.020Z,10.88
2023-02-23T12:31:36.645Z,12.00
2023-02-23T12:34:13.311Z,11.38
2023-02-23T12:36:47.723Z,10.75
2023-02-23T12:39:22.916Z,9.80
2023-02-23T12:42:00.334Z,10.00
2023-02-23T12:44:42.695Z,10.80
2023-02-23T12:47:22.290Z,10.18
2023-02-23T12:49:55.149Z,9.65
2023-02-23T12:52:31.029Z,9.73
2023-02-23T12:54:59.650Z,9.57
2023-02-23T12:57:39.224Z,9.45
2023-02-23T13:00:48.069Z,8.40
2023-02-23T13:03:55.529Z,6.93
2023-02-23T13:06:30.691Z,7.97
2023-02-23T13:09:10.882Z,7.72
2023-02-23T13:11:56.309Z,6.35
2023-02-23T13:14:30.829Z,7.28
2023-02-23T13:17:04.388Z,6.85
2023-02-23T13:19:42.502Z,5.75
2023-02-23T13:22:27.033Z,6.45
2023-02-23T13:25:00.636Z,6.10
2023-02-23T13:27:35.327Z,5.78
2023-02-23T13:30:05.454Z,5.07
2023-02-23T13:32:36.860Z,5.93
2023-02-23T13:35:08.086Z,4.78
2023-02-23T13:37:43.758Z,5.30
2023-02-23T13:40:28.587Z,4.85
2023-02-23T13:43:08.657Z,5.60
2023-02-23T13:45:54.009Z,6.47
2023-02-23T13:48:33.296Z,4.50
2023-02-23T13:51:08.140Z,5.40
2023-02-23T13:53:41.989Z,4.80
2023-02-23T13:56:16.923Z,6.30
2023-02-23T13:58:48.886Z,5.65
2023-02-23T14:01:22.514Z,6.25
2023-02-23T14:03:56.095Z,6.85
2023-02-23T14:06:26.901Z,7.68
2023-02-23T14:09:00.837Z,7.38
2023-02-23T14:11:46.905Z,6.78
2023-02-23T14:14:37.499Z,6.72
2023-02-23T14:17:51.081Z,6.00
2023-02-23T14:20:44.196Z,5.63
2023-02-23T14:23:49.682Z,6.63
2023-02-23T14:26:47.349Z,6.40
2023-02-23T14:29:27.754Z,6.90
2023-02-23T14:31:59.667Z,7.97
2023-02-23T14:34:52.670Z,8.63
2023-02-23T14:37:27.208Z,8.70
2023-02-23T14:39:57.743Z,7.70
2023-02-23T14:42:30.709Z,8.73
2023-02-23T14:45:05.514Z,8.60
2023-02-23T14:47:43.737Z,9.00
2023-02-23T14:50:17.901Z,8.63
2023-02-23T14:52:46.676Z,11.50
2023-02-23T14:55:22.828Z,9.15
2023-02-23T14:57:54.292Z,9.27
2023-02-23T15:00:25.370Z,10.35
2023-02-23T15:03:03.684Z,9.32
2023-02-23T15:05:34.006Z,10.63
2023-02-23T15:08:05.151Z,12.32
2023-02-23T15:10:37.877Z,9.32
2023-02-23T15:13:13.129Z,10.10
2023-02-23T15:15:45.872Z,10.63
2023-02-23T15:19:08.935Z,10.38
2023-02-23T15:21:40.257Z,9.88
2023-02-23T15:24:12.832Z,9.27
2023-02-23T15:26:44.199Z,11.23
2023-02-23T15:29:18.370Z,8.80
2023-02-23T15:31:52.348Z,8.43
2023-02-23T15:34:22.539Z,11.32
2023-02-23T15:36:54.466Z,11.40
2023-02-23T15:39:36.035Z,7.97
2023-02-23T15:42:06.053Z,7.65
2023-02-23T15:44:44.107Z,8.80
2023-02-23T15:47:21.644Z,8.52
2023-02-23T15:49:50.324Z,8.07
2023-02-23T15:52:24.109Z,8.98
2023-02-23T15:55:00.784Z,8.50
2023-02-23T15:57:31.515Z,8.00
2023-02-23T16:00:07.824Z,7.70
2023-02-23T16:02:38.410Z,10.30
2023-02-23T16:05:22.002Z,7.47
2023-02-23T16:07:50.167Z,8.00
2023-02-23T16:10:23.611Z,8.00
2023-02-23T16:12:54.419Z,7.55
2023-02-23T16:15:27.227Z,8.32
2023-02-23T16:17:58.947Z,8.20
2023-02-23T16:20:36.876Z,12.55
2023-02-23T16:23:07.409Z,10.15
2023-02-23T16:25:36.154Z,10.07
2023-02-23T16:28:09.796Z,10.23
2023-02-23T16:30:44.521Z,8.18
2023-02-23T16:33:19.479Z,7.72
2023-02-23T16:35:50.752Z,6.80
2023-02-23T16:38:25.611Z,7.88
2023-02-23T16:40:54.404Z,7.03
2023-02-23T16:43:23.432Z,6.85
2023-02-23T16:45:53.093Z,9.15
2023-02-23T16:48:21.193Z,6.88
2023-02-23T16:50:51.157Z,6.80
2023-02-23T16:53:19.718Z,7.88
2023-02-23T16:55:52.389Z,6.20
2023-02-23T16:58:23.711Z,6.18
2023-02-23T17:00:54.173Z,5.63
2023-02-23T17:03:26.572Z,7.47
2023-02-23T17:05:56.745Z,5.63
2023-02-23T17:08:26.322Z,6.28
2023-02-23T17:10:55.914Z,5.97
2023-02-23T17:13:26.441Z,5.15
2023-02-23T17:15:58.436Z,4.50
2023-02-23T17:18:28.568Z,7.10
2023-02-23T17:20:58.987Z,5.13
2023-02-23T17:23:29.776Z,4.82
2023-02-23T17:25:58.995Z,6.53
2023-02-23T17:28:27.082Z,5.85
2023-02-23T17:30:57.029Z,5.13
2023-02-23T17:33:25.358Z,5.55
2023-02-23T17:35:53.947Z,4.43
2023-02-23T17:38:23.688Z,4.35
2023-02-23T17:40:53.090Z,4.80
2023-02-23T17:43:23.884Z,6.78
2023-02-23T17:45:55.165Z,7.15
2023-02-23T17:48:25.367Z,6.68
2023-02-23T17:50:59.538Z,6.18
2023-02-23T17:53:28.243Z,6.30
2023-02-23T17:55:56.992Z,5.15
2023-02-23T17:58:25.740Z,4.80
2023-02-23T18:00:57.482Z,5.82
2023-02-23T18:03:32.283Z,5.35
2023-02-23T18:06:04.396Z,5.68
2023-02-23T18:08:33.697Z,6.50
2023-02-23T18:11:02.679Z,4.82
2023-02-23T18:13:33.323Z,5.13
2023-02-23T18:16:03.478Z,5.50
2023-02-23T18:18:33.422Z,6.93
2023-02-23T18:21:03.292Z,6.47
2023-02-23T18:23:33.385Z,6.90
2023-02-23T18:26:09.004Z,6.18
2023-02-23T18:28:38.657Z,7.15
2023-02-23T18:31:07.587Z,8.32
2023-02-23T18:33:37.555Z,6.70
2023-02-23T18:36:17.073Z,5.82
2023-02-23T18:38:45.613Z,8.02
2023-02-23T18:41:14.015Z,6.95
2023-02-23T18:43:42.068Z,6.40
2023-02-23T18:46:14.902Z,9.63
2023-02-23T18:48:45.278Z,6.28
2023-02-23T18:51:15.130Z,7.40
2023-02-23T18:53:44.661Z,9.52
2023-02-23T18:56:15.831Z,5.90
2023-02-23T18:58:46.294Z,7.70
2023-02-23T19:01:18.906Z,6.63
2023-02-23T19:03:49.017Z,7.43
2023-02-23T19:06:18.179Z,8.73
2023-02-23T19:08:54.618Z,8.60
2023-02-23T19:11:26.728Z,6.55
2023-02-23T19:13:56.164Z,6.57
2023-02-23T19:16:25.953Z,8.07
2023-02-23T19:18:55.898Z,7.63
2023-02-23T19:21:24.050Z,9.38
2023-02-23T19:23:54.072Z,8.80
2023-02-23T19:26:22.830Z,7.95
2023-02-23T19:28:51.437Z,7.20
2023-02-23T19:31:23.517Z,10.70
2023-02-23T19:33:53.508Z,7.90
2023-02-23T19:36:26.902Z,9.52
2023-02-23T19:38:56.945Z,8.20
2023-02-23T19:41:25.725Z,9.73
2023-02-23T19:43:54.481Z,10.38
2023-02-23T19:46:26.017Z,10.20
2023-02-23T19:48:54.245Z,10.00
2023-02-23T19:51:24.574Z,8.15
2023-02-23T19:53:54.905Z,8.90
2023-02-23T19:56:25.332Z,10.13
2023-02-23T19:58:53.961Z,10.55
2023-02-23T20:01:23.749Z,7.38
2023-02-23T20:03:55.936Z,8.43
2023-02-23T20:06:27.966Z,7.90
2023-02-23T20:08:56.495Z,8.18
2023-02-23T20:11:25.060Z,9.18
2023-02-23T20:13:53.655Z,7.65
2023-02-23T20:16:22.065Z,8.25
2023-02-23T20:18:50.176Z,8.73
2023-02-23T20:21:20.925Z,8.20
2023-02-23T20:23:50.946Z,6.82
2023-02-23T20:26:22.345Z,11.70
2023-02-23T20:28:51.269Z,6.90
2023-02-23T20:31:23.087Z,8.65
2023-02-23T20:33:51.542Z,7.65
2023-02-23T20:36:20.855Z,7.53
2023-02-23T20:38:51.051Z,7.40
2023-02-23T20:41:20.882Z,9.25
2023-02-23T20:43:49.276Z,8.52
2023-02-23T20:46:20.260Z,8.48
2023-02-23T20:48:49.255Z,9.27
2023-02-23T20:51:19.445Z,9.05
2023-02-23T20:53:51.128Z,12.52
2023-02-23T20:56:22.185Z,10.25
2023-02-23T20:58:50.924Z,8.20
2023-02-23T21:01:22.980Z,8.55
2023-02-23T21:03:52.767Z,10.57
2023-02-23T21:06:22.313Z,9.93
2023-02-23T21:08:56.091Z,11.27
2023-02-23T21:11:26.662Z,11.40
2023-02-23T21:13:55.008Z,9.68
2023-02-23T21:16:24.310Z,10.27
2023-02-23T21:19:04.087Z,9.70
2023-02-23T21:21:33.331Z,8.70
2023-02-23T21:24:03.281Z,9.85
2023-02-23T21:26:31.694Z,13.68
2023-02-23T21:28:59.788Z,12.13
2023-02-23T21:31:28.539Z,10.27
2023-02-23T21:33:56.806Z,10.95
2023-02-23T21:36:25.528Z,11.25
2023-02-23T21:38:53.609Z,10.18
2023-02-23T21:41:26.170Z,11.63
2023-02-23T21:43:54.933Z,9.70
2023-02-23T21:46:23.887Z,9.55
2023-02-23T21:48:52.856Z,13.48
2023-02-23T21:51:21.324Z,15.80
2023-02-23T21:53:50.239Z,11.23
2023-02-23T21:56:24.101Z,14.10
2023-02-23T21:58:54.898Z,15.88
2023-02-23T22:01:26.012Z,25.77
2023-02-23T22:03:55.510Z,29.83
2023-02-23T22:06:27.263Z,20.95
2023-02-23T22:08:56.773Z,18.50
2023-02-23T22:11:27.153Z,15.75
2023-02-23T22:14:00.376Z,14.95
2023-02-23T22:16:30.050Z,11.67
2023-02-23T22:18:59.139Z,11.93
2023-02-23T22:21:27.850Z,12.40
2023-02-23T22:23:56.214Z,12.80
2023-02-23T22:26:24.815Z,11.70
2023-02-23T22:28:52.901Z,10.07
2023-02-23T22:31:23.563Z,11.95
2023-02-23T22:33:52.524Z,11.27
2023-02-23T22:36:21.147Z,13.27
2023-02-23T22:38:49.348Z,10.98
2023-02-23T22:41:18.108Z,15.27
2023-02-23T22:43:48.425Z,10.80
2023-02-23T22:46:17.855Z,11.23
2023-02-23T22:48:47.683Z,13.15
2023-02-23T22:51:18.109Z,14.25
2023-02-23T22:53:46.572Z,12.57
2023-02-23T22:56:15.525Z,11.65
2023-02-23T22:58:43.713Z,14.25
2023-02-23T23:01:13.532Z,11.48
2023-02-23T23:03:46.182Z,12.02
2023-02-23T23:06:22.070Z,13.20
2023-02-23T23:08:53.257Z,16.75
2023-02-23T23:11:23.586Z,12.40
2023-02-23T23:13:54.291Z,11.90
2023-02-23T23:16:31.627Z,14.63
2023-02-23T23:19:02.966Z,13.25
2023-02-23T23:21:34.252Z,13.93
2023-02-23T23:24:06.267Z,15.38
2023-02-23T23:26:35.590Z,13.82
2023-02-23T23:29:06.277Z,14.07
2023-02-23T23:31:36.424Z,14.73
2023-02-23T23:34:09.187Z,13.32
2023-02-23T23:36:43.639Z,14.57
2023-02-23T23:39:13.054Z,14.32
2023-02-23T23:41:43.550Z,13.60
2023-02-23T23:44:13.610Z,13.63
2023-02-23T23:46:44.809Z,13.38
2023-02-23T23:49:16.337Z,13.73
2023-02-23T23:51:49.305Z,13.38
2023-02-23T23:54:20.053Z,13.15
2023-02-23T23:56:48.862Z,14.43
2023-02-23T23:59:20.777Z,13.82
